Time;durP1;ratioP1;P1;durP2;ratioP2;P2;SDS_P1;SDS_P2;PMS_P1;PMS_P2;Temp;Humidity;BMP_temperature;BMP_pressure;BME280_temperature;BME280_humidity;BME280_pressure;Samples;Min_cycle;Max_cycle;Signal;HPM_P1;HPM_P2
2021/07/25 00:02:26;;;;;;;16.70;15.20;;;23.80;1.00;;;;;;5089139;27;20455;-77
2021/07/25 00:04:52;;;;;;;16.17;14.87;;;23.80;1.00;;;;;;5093531;27;20461;-77
2021/07/25 00:07:19;;;;;;;16.57;15.17;;;23.70;1.00;;;;;;5093751;27;20496;-77
2021/07/25 00:09:47;;;;;;;16.50;15.17;;;23.70;1.00;;;;;;5090922;27;20495;-77
2021/07/25 00:12:13;;;;;;;15.63;14.27;;;23.60;1.00;;;;;;5093169;27;20448;-77
2021/07/25 00:14:49;;;;;;;16.10;14.70;;;23.60;1.00;;;;;;5091541;27;20480;-77
2021/07/25 00:17:16;;;;;;;16.30;14.80;;;23.50;1.00;;;;;;5092554;27;20930;-77
2021/07/25 00:19:42;;;;;;;16.83;15.30;;;23.40;1.00;;;;;;5089345;27;20468;-77
2021/07/25 00:22:09;;;;;;;17.53;15.97;;;23.40;1.00;;;;;;5093732;27;20449;-77
2021/07/25 00:24:37;;;;;;;15.67;14.27;;;23.30;1.00;;;;;;5091487;28;20435;-77
2021/07/25 00:27:06;;;;;;;16.77;15.27;;;23.30;1.00;;;;;;5091985;27;20520;-77
2021/07/25 00:29:33;;;;;;;17.00;15.50;;;23.20;1.00;;;;;;5091408;27;20462;-77
2021/07/25 00:32:01;;;;;;;16.27;14.87;;;23.20;1.00;;;;;;5092078;27;20452;-78
2021/07/25 00:34:29;;;;;;;16.77;15.27;;;23.10;1.00;;;;;;5096203;27;20446;-77
2021/07/25 00:36:56;;;;;;;17.50;15.90;;;23.10;1.00;;;;;;5093121;27;20667;-78
2021/07/25 00:39:23;;;;;;;16.40;15.00;;;23.10;1.00;;;;;;5092782;27;20458;-78
2021/07/25 00:41:50;;;;;;;16.53;14.97;;;23.00;1.00;;;;;;5094807;28;20447;-77
2021/07/25 00:44:18;;;;;;;16.30;14.80;;;23.00;1.00;;;;;;5092041;27;20456;-77
2021/07/25 00:46:46;;;;;;;16.77;15.37;;;22.90;1.00;;;;;;5093978;27;20450;-76
2021/07/25 00:49:13;;;;;;;15.00;13.70;;;22.90;1.00;;;;;;5092371;27;20447;-77
2021/07/25 00:51:40;;;;;;;17.03;15.53;;;22.80;1.00;;;;;;5091614;27;20436;-77
2021/07/25 00:54:07;;;;;;;17.93;16.03;;;22.80;1.00;;;;;;5088821;27;20447;-77
2021/07/25 00:56:34;;;;;;;17.50;15.70;;;22.80;1.00;;;;;;5089189;27;20441;-77
2021/07/25 00:59:01;;;;;;;16.60;15.13;;;22.70;1.00;;;;;;5092179;28;20444;-77
2021/07/25 01:01:29;;;;;;;16.67;15.17;;;22.70;1.00;;;;;;5091723;27;20473;-77
2021/07/25 01:04:09;;;;;;;17.30;15.80;;;22.70;1.00;;;;;;5091190;27;20439;-77
2021/07/25 01:06:44;;;;;;;16.07;14.67;;;22.60;1.00;;;;;;5094054;27;20465;-77
2021/07/25 01:09:19;;;;;;;16.97;15.40;;;22.60;1.00;;;;;;5097888;27;21481;-77
2021/07/25 01:11:48;;;;;;;16.30;14.80;;;22.50;1.00;;;;;;5096409;27;20542;-77
2021/07/25 01:14:21;;;;;;;17.60;15.97;;;22.50;1.00;;;;;;5096358;27;20631;-77
2021/07/25 01:16:49;;;;;;;16.80;15.30;;;22.50;1.00;;;;;;5093981;28;20426;-77
2021/07/25 01:19:16;;;;;;;16.53;15.10;;;22.40;1.00;;;;;;5092921;27;20449;-78
2021/07/25 01:21:44;;;;;;;16.63;15.20;;;22.30;1.00;;;;;;5088275;27;21061;-78
2021/07/25 01:24:10;;;;;;;18.03;16.30;;;22.30;1.00;;;;;;5092299;27;21020;-78
2021/07/25 01:26:42;;;;;;;16.83;15.33;;;22.30;1.00;;;;;;5092969;27;20506;-78
2021/07/25 01:29:10;;;;;;;17.10;15.40;;;22.30;1.00;;;;;;5093029;27;20441;-77
2021/07/25 01:31:39;;;;;;;18.47;16.67;;;22.20;1.00;;;;;;5094291;27;21000;-77
2021/07/25 01:34:07;;;;;;;17.43;15.93;;;22.20;1.00;;;;;;5090870;27;20509;-77
2021/07/25 01:36:37;;;;;;;16.97;15.30;;;22.20;1.00;;;;;;5092265;27;20466;-77
2021/07/25 01:39:05;;;;;;;16.53;15.00;;;22.10;1.00;;;;;;5091734;28;20452;-77
2021/07/25 01:41:31;;;;;;;16.57;15.07;;;22.10;1.00;;;;;;5094344;27;20440;-77
2021/07/25 01:43:58;;;;;;;18.67;16.83;;;22.00;1.00;;;;;;5090841;27;20457;-78
2021/07/25 01:46:25;;;;;;;17.10;15.50;;;22.00;1.00;;;;;;5088863;27;20467;-77
2021/07/25 01:48:51;;;;;;;16.97;15.37;;;22.00;1.00;;;;;;5088465;27;20837;-77
2021/07/25 01:51:18;;;;;;;18.17;16.47;;;21.90;1.00;;;;;;5092421;27;20453;-77
2021/07/25 01:53:44;;;;;;;17.20;15.73;;;21.80;1.00;;;;;;5092453;27;20465;-77
2021/07/25 01:56:13;;;;;;;17.30;15.70;;;21.80;1.00;;;;;;5087961;27;20517;-77
2021/07/25 01:58:39;;;;;;;16.63;15.00;;;21.70;1.00;;;;;;5092396;27;20462;-77
2021/07/25 02:01:06;;;;;;;16.30;14.80;;;21.70;1.00;;;;;;5097524;27;20446;-77
2021/07/25 02:03:34;;;;;;;16.90;15.50;;;21.70;1.00;;;;;;5096496;27;20523;-77
2021/07/25 02:06:02;;;;;;;16.73;15.13;;;21.70;1.00;;;;;;5095365;27;20449;-77
2021/07/25 02:08:29;;;;;;;18.40;16.73;;;21.70;1.00;;;;;;5094616;28;20440;-77
2021/07/25 02:10:55;;;;;;;16.70;15.00;;;21.70;1.00;;;;;;5095211;27;21643;-77
2021/07/25 02:13:24;;;;;;;17.03;15.20;;;21.60;1.00;;;;;;5094232;27;20521;-77
2021/07/25 02:15:51;;;;;;;18.40;16.60;;;21.60;1.00;;;;;;5093222;27;20411;-78
2021/07/25 02:18:18;;;;;;;17.27;15.57;;;21.60;1.00;;;;;;5095733;27;20477;-77
2021/07/25 02:20:46;;;;;;;16.87;15.37;;;21.60;1.00;;;;;;5094010;28;20772;-78
2021/07/25 02:23:13;;;;;;;17.03;15.50;;;21.60;1.00;;;;;;5096595;27;20464;-77
2021/07/25 02:25:39;;;;;;;17.53;15.80;;;21.60;1.00;;;;;;5095362;27;20487;-77
2021/07/25 02:28:07;;;;;;;18.17;16.37;;;21.60;1.00;;;;;;5093117;27;20509;-78
2021/07/25 02:30:35;;;;;;;17.57;15.97;;;21.60;1.00;;;;;;5093993;27;20462;-77
2021/07/25 02:33:02;;;;;;;17.70;16.10;;;21.50;1.00;;;;;;5090934;27;20560;-77
2021/07/25 02:35:29;;;;;;;17.73;15.90;;;21.50;1.00;;;;;;5092276;27;21024;-77
2021/07/25 02:37:56;;;;;;;18.33;16.43;;;21.50;1.00;;;;;;5096367;27;20468;-77
2021/07/25 02:40:23;;;;;;;17.87;16.17;;;21.50;1.00;;;;;;5093235;27;20454;-77
2021/07/25 02:42:49;;;;;;;17.30;15.70;;;21.40;1.00;;;;;;5093696;28;20481;-77
2021/07/25 02:45:16;;;;;;;17.73;16.13;;;21.40;1.00;;;;;;5093361;27;20437;-77
2021/07/25 02:47:44;;;;;;;18.77;16.90;;;21.30;1.00;;;;;;5093686;27;20448;-77
2021/07/25 02:50:12;;;;;;;17.93;16.13;;;21.30;1.00;;;;;;5097100;27;20495;-77
2021/07/25 02:52:39;;;;;;;18.60;16.80;;;21.30;1.00;;;;;;5092336;27;21023;-77
2021/07/25 02:55:06;;;;;;;17.13;15.50;;;21.30;1.00;;;;;;5096985;27;20471;-77
2021/07/25 02:57:33;;;;;;;17.60;15.93;;;21.20;1.00;;;;;;5092497;27;20428;-77
2021/07/25 02:59:59;;;;;;;15.90;14.40;;;21.10;1.00;;;;;;5095213;28;20418;-77
2021/07/25 03:02:26;;;;;;;18.20;16.50;;;21.10;1.00;;;;;;5101530;27;20828;-77
2021/07/25 03:04:54;;;;;;;18.93;17.23;;;21.10;1.00;;;;;;5095463;27;21036;-76
2021/07/25 03:07:20;;;;;;;16.70;15.17;;;21.10;1.00;;;;;;5092016;27;20462;-77
2021/07/25 03:09:47;;;;;;;16.93;15.40;;;21.00;1.00;;;;;;5090939;27;20554;-77
2021/07/25 03:12:14;;;;;;;17.57;15.83;;;21.00;1.00;;;;;;5093428;27;20466;-77
2021/07/25 03:14:40;;;;;;;17.73;15.97;;;21.00;1.00;;;;;;5092023;27;20559;-77
2021/07/25 03:17:07;;;;;;;17.03;15.47;;;21.00;1.00;;;;;;5090265;28;20448;-77
2021/07/25 03:19:34;;;;;;;19.03;15.90;;;21.00;1.00;;;;;;5092106;27;20453;-76
2021/07/25 03:22:04;;;;;;;18.03;16.43;;;20.90;1.00;;;;;;5090646;27;20453;-76
2021/07/25 03:24:31;;;;;;;17.70;15.77;;;21.00;1.00;;;;;;5091374;27;20438;-76
2021/07/25 03:26:58;;;;;;;19.00;17.10;;;20.90;1.00;;;;;;5093172;27;20473;-77
2021/07/25 03:29:24;;;;;;;17.57;15.80;;;20.90;1.00;;;;;;5092872;27;20456;-77
2021/07/25 03:31:51;;;;;;;18.50;16.83;;;20.90;1.00;;;;;;5091849;27;20476;-77
2021/07/25 03:34:17;;;;;;;19.67;17.70;;;20.90;1.00;;;;;;5091788;28;20429;-76
2021/07/25 03:36:44;;;;;;;17.03;15.50;;;20.90;1.00;;;;;;5091793;27;20572;-76
2021/07/25 03:39:16;;;;;;;18.20;16.43;;;20.90;1.00;;;;;;5090536;27;20980;-76
2021/07/25 03:41:42;;;;;;;18.23;16.57;;;20.90;1.00;;;;;;5094258;27;20995;-76
2021/07/25 03:44:09;;;;;;;18.83;16.93;;;20.90;1.00;;;;;;5091663;27;20432;-76
2021/07/25 03:46:37;;;;;;;18.77;16.87;;;20.90;1.00;;;;;;5093655;28;20460;-77
2021/07/25 03:49:03;;;;;;;17.63;16.00;;;20.90;1.00;;;;;;5092334;27;20452;-77
2021/07/25 03:51:31;;;;;;;17.83;16.13;;;20.90;1.00;;;;;;5094385;28;20462;-76
2021/07/25 03:53:58;;;;;;;18.50;16.80;;;20.80;1.00;;;;;;5093488;27;20478;-76
2021/07/25 03:56:26;;;;;;;17.77;16.13;;;20.80;1.00;;;;;;5091969;27;21249;-77
2021/07/25 03:58:53;;;;;;;18.70;16.83;;;20.80;1.00;;;;;;5091497;27;20460;-77
2021/07/25 04:01:20;;;;;;;19.93;17.47;;;20.80;1.00;;;;;;5092671;27;20537;-78
2021/07/25 04:03:46;;;;;;;17.67;16.00;;;20.80;1.00;;;;;;5099399;28;20437;-77
2021/07/25 04:06:13;;;;;;;17.77;16.20;;;20.80;1.00;;;;;;5092988;27;20451;-77
2021/07/25 04:08:40;;;;;;;17.43;15.70;;;20.80;1.00;;;;;;5096506;28;20460;-77
2021/07/25 04:11:07;;;;;;;19.00;17.07;;;20.80;1.00;;;;;;5098505;27;20459;-78
2021/07/25 04:13:35;;;;;;;17.30;15.70;;;20.80;1.00;;;;;;5097204;27;20452;-77
2021/07/25 04:16:01;;;;;;;17.50;15.70;;;20.80;1.00;;;;;;5090095;27;20452;-76
2021/07/25 04:18:29;;;;;;;18.20;16.40;;;20.70;1.00;;;;;;5093857;27;20467;-76
2021/07/25 04:20:55;;;;;;;18.07;16.37;;;20.70;1.00;;;;;;5090801;28;20544;-76
2021/07/25 04:23:22;;;;;;;18.73;17.00;;;20.70;1.00;;;;;;5093771;27;20452;-76
2021/07/25 04:25:49;;;;;;;19.13;17.43;;;20.70;1.00;;;;;;5090731;27;20434;-76
2021/07/25 04:28:16;;;;;;;17.80;16.10;;;20.70;1.00;;;;;;5092135;27;20460;-76
2021/07/25 04:30:45;;;;;;;18.97;17.27;;;20.70;1.00;;;;;;5092201;27;20889;-76
2021/07/25 04:33:15;;;;;;;17.93;16.23;;;20.70;1.00;;;;;;5090987;28;20450;-76
2021/07/25 04:35:42;;;;;;;17.60;16.00;;;20.70;1.00;;;;;;5091223;27;20843;-76
2021/07/25 04:38:09;;;;;;;18.40;16.50;;;20.80;1.00;;;;;;5092782;28;20460;-77
2021/07/25 04:40:39;;;;;;;18.10;16.50;;;20.80;1.00;;;;;;5092317;27;20478;-76
2021/07/25 04:43:10;;;;;;;17.57;15.97;;;20.80;1.00;;;;;;5091626;27;20448;-76
2021/07/25 04:45:51;;;;;;;19.23;17.40;;;20.90;1.00;;;;;;5091820;27;20466;-76
2021/07/25 04:48:26;;;;;;;17.57;15.97;;;21.00;1.00;;;;;;5092097;27;20861;-77
2021/07/25 04:51:03;;;;;;;18.20;16.30;;;20.90;1.00;;;;;;5089851;27;21037;-77
2021/07/25 04:53:37;;;;;;;19.50;16.67;;;20.90;1.00;;;;;;5090083;27;20969;-76
2021/07/25 04:56:04;;;;;;;18.63;16.93;;;21.00;1.00;;;;;;5089922;27;20455;-76
2021/07/25 04:58:45;;;;;;;18.57;16.57;;;20.90;1.00;;;;;;5088700;27;20416;-76
2021/07/25 05:01:16;;;;;;;18.07;16.27;;;20.90;1.00;;;;;;5092582;28;20964;-76
2021/07/25 05:03:44;;;;;;;18.77;16.87;;;20.90;1.00;;;;;;5095031;27;20975;-77
2021/07/25 05:06:13;;;;;;;18.10;16.50;;;21.00;1.00;;;;;;5093078;27;21220;-76
2021/07/25 05:08:41;;;;;;;19.60;17.63;;;20.90;1.00;;;;;;5090788;27;20461;-76
2021/07/25 05:11:14;;;;;;;18.73;17.03;;;21.00;1.00;;;;;;5090404;27;20971;-76
2021/07/25 05:13:44;;;;;;;20.57;18.67;;;21.00;1.00;;;;;;5091187;27;20495;-76
2021/07/25 05:16:21;;;;;;;18.33;16.43;;;21.00;1.00;;;;;;5090414;27;20433;-76
2021/07/25 05:18:56;;;;;;;17.87;16.13;;;21.00;1.00;;;;;;5093894;28;20447;-76
2021/07/25 05:21:24;;;;;;;19.13;17.37;;;21.10;1.00;;;;;;5091023;27;20447;-76
2021/07/25 05:23:54;;;;;;;16.40;14.97;;;21.10;1.00;;;;;;5091224;28;20998;-77
2021/07/25 05:26:25;;;;;;;17.33;15.83;;;21.20;1.00;;;;;;5090551;27;20465;-76
2021/07/25 05:28:56;;;;;;;17.90;16.27;;;21.20;1.00;;;;;;5090692;27;20468;-76
2021/07/25 05:31:29;;;;;;;17.57;15.90;;;21.30;1.00;;;;;;5092279;27;20468;-75
2021/07/25 05:33:57;;;;;;;18.87;17.10;;;21.30;1.00;;;;;;5085446;27;20525;-78
2021/07/25 05:36:24;;;;;;;19.10;17.30;;;21.40;1.00;;;;;;5091049;27;20443;-76
2021/07/25 05:38:51;;;;;;;19.13;17.47;;;21.40;1.00;;;;;;5091556;27;20445;-76
2021/07/25 05:41:18;;;;;;;17.80;16.10;;;21.50;1.00;;;;;;5091627;28;20435;-76
2021/07/25 05:43:44;;;;;;;18.47;16.70;;;21.50;1.00;;;;;;5093591;27;21322;-76
2021/07/25 05:46:11;;;;;;;17.80;15.90;;;21.50;1.00;;;;;;5091272;27;20461;-76
2021/07/25 05:48:39;;;;;;;18.57;16.93;;;21.50;1.00;;;;;;5089227;27;20430;-77
2021/07/25 05:51:06;;;;;;;18.77;16.93;;;21.50;1.00;;;;;;5093431;27;20444;-76
2021/07/25 05:53:33;;;;;;;17.20;15.50;;;21.50;1.00;;;;;;5095855;28;20456;-76
2021/07/25 05:56:00;;;;;;;18.13;16.53;;;21.50;1.00;;;;;;5093285;27;21162;-76
2021/07/25 05:58:26;;;;;;;19.03;17.13;;;21.70;1.00;;;;;;5092957;27;20461;-76
2021/07/25 06:00:53;;;;;;;19.20;17.50;;;21.70;1.00;;;;;;5094624;27;20902;-76
2021/07/25 06:03:20;;;;;;;18.70;17.10;;;21.80;1.00;;;;;;5090861;27;20459;-77
2021/07/25 06:05:47;;;;;;;18.90;17.13;;;22.00;1.00;;;;;;5104356;27;20826;-77
2021/07/25 06:08:14;;;;;;;19.70;18.00;;;22.10;1.00;;;;;;5104602;27;20494;-77
2021/07/25 06:10:43;;;;;;;19.37;17.37;;;22.30;1.00;;;;;;5102007;28;20469;-77
2021/07/25 06:13:10;;;;;;;18.37;16.87;;;22.40;1.00;;;;;;5099684;27;20969;-76
2021/07/25 06:15:37;;;;;;;19.03;17.13;;;22.50;1.00;;;;;;5097953;27;20448;-77
2021/07/25 06:18:06;;;;;;;19.47;17.87;;;22.60;1.00;;;;;;5100426;27;20425;-77
2021/07/25 06:20:33;;;;;;;18.90;17.20;;;22.80;1.00;;;;;;5098267;27;20937;-76
2021/07/25 06:23:01;;;;;;;18.17;16.37;;;23.10;1.00;;;;;;5092689;27;20438;-77
2021/07/25 06:25:30;;;;;;;18.93;17.13;;;23.10;1.00;;;;;;5092515;27;21430;-77
2021/07/25 06:27:58;;;;;;;20.00;18.27;;;23.10;1.00;;;;;;5092926;28;20479;-77
2021/07/25 06:30:26;;;;;;;19.07;17.37;;;23.20;1.00;;;;;;5091597;27;20462;-76
2021/07/25 06:32:56;;;;;;;19.67;17.80;;;23.20;1.00;;;;;;5092425;27;20415;-77
2021/07/25 06:35:25;;;;;;;18.30;16.80;;;23.20;1.00;;;;;;5102145;27;20521;-77
2021/07/25 06:37:51;;;;;;;19.57;17.67;;;23.20;1.00;;;;;;5104183;27;20460;-77
2021/07/25 06:40:20;;;;;;;19.43;17.83;;;23.00;1.00;;;;;;5094519;27;20446;-77
2021/07/25 06:42:46;;;;;;;20.00;18.00;;;22.90;1.00;;;;;;5096233;27;20554;-77
2021/07/25 06:45:14;;;;;;;19.50;17.93;;;22.90;1.00;;;;;;5099438;28;21241;-77
2021/07/25 06:47:42;;;;;;;19.83;18.00;;;22.90;1.00;;;;;;5097762;27;20434;-77
2021/07/25 06:50:09;;;;;;;19.67;18.07;;;22.90;1.00;;;;;;5095335;27;20426;-77
2021/07/25 06:52:38;;;;;;;19.20;17.47;;;22.90;1.00;;;;;;5092147;27;20454;-76
2021/07/25 06:55:06;;;;;;;18.97;17.37;;;22.90;1.00;;;;;;5094233;27;20945;-77
2021/07/25 06:57:34;;;;;;;18.70;17.20;;;22.90;1.00;;;;;;5093659;27;20458;-77
2021/07/25 07:00:01;;;;;;;19.00;17.27;;;22.90;1.00;;;;;;5089784;27;20473;-76
2021/07/25 07:02:27;;;;;;;19.20;17.40;;;23.00;1.00;;;;;;5088068;28;20444;-78
2021/07/25 07:04:56;;;;;;;19.80;18.10;;;23.10;1.00;;;;;;5092254;27;22427;-78
2021/07/25 07:07:23;;;;;;;20.73;18.63;;;23.30;1.00;;;;;;5093608;27;21723;-78
2021/07/25 07:09:51;;;;;;;19.50;17.63;;;23.40;1.00;;;;;;5092862;28;20459;-78
2021/07/25 07:12:17;;;;;;;18.63;17.13;;;23.60;1.00;;;;;;5092415;27;20967;-78
2021/07/25 07:14:45;;;;;;;18.77;17.17;;;23.80;1.00;;;;;;5096793;27;20475;-78
2021/07/25 07:17:12;;;;;;;18.90;17.30;;;23.90;1.00;;;;;;5092765;27;20950;-78
2021/07/25 07:19:38;;;;;;;17.23;15.83;;;24.00;1.00;;;;;;5095016;28;20456;-78
2021/07/25 07:22:05;;;;;;;18.00;16.60;;;24.00;1.00;;;;;;5095504;27;20449;-78
2021/07/25 07:24:31;;;;;;;18.97;17.33;;;24.10;1.00;;;;;;5094822;27;20450;-78
2021/07/25 07:26:58;;;;;;;18.03;16.50;;;24.20;1.00;;;;;;5088492;27;20457;-78
2021/07/25 07:29:25;;;;;;;18.37;16.77;;;24.20;1.00;;;;;;5091128;27;20482;-77
2021/07/25 07:31:53;;;;;;;18.27;16.77;;;24.30;1.00;;;;;;5096232;28;21623;-77
2021/07/25 07:34:19;;;;;;;18.07;16.53;;;24.40;1.00;;;;;;5088995;27;20671;-78
2021/07/25 07:36:46;;;;;;;19.63;16.53;;;24.50;1.00;;;;;;5094946;27;20459;-78
2021/07/25 07:39:12;;;;;;;17.67;16.27;;;24.70;1.00;;;;;;5089640;27;20560;-78
2021/07/25 07:41:39;;;;;;;16.73;15.23;;;24.90;1.00;;;;;;5091256;27;23885;-78
2021/07/25 07:44:05;;;;;;;17.33;15.93;;;25.10;1.00;;;;;;5091596;27;20434;-78
2021/07/25 07:46:32;;;;;;;18.07;16.50;;;25.10;1.00;;;;;;5091075;27;21563;-78
2021/07/25 07:49:00;;;;;;;17.00;15.50;;;25.20;1.00;;;;;;5091191;27;20551;-79
2021/07/25 07:51:27;;;;;;;18.40;16.70;;;25.40;1.00;;;;;;5092223;27;20477;-78
2021/07/25 07:53:53;;;;;;;17.17;15.80;;;25.70;1.00;;;;;;5107015;28;20445;-78
2021/07/25 07:56:21;;;;;;;18.10;16.30;;;25.80;1.00;;;;;;5101837;27;20445;-78
2021/07/25 07:58:47;;;;;;;17.20;15.60;;;25.90;1.00;;;;;;5093689;27;20451;-78
2021/07/25 08:01:14;;;;;;;17.77;16.30;;;25.80;1.00;;;;;;5092393;27;20460;-78
2021/07/25 08:03:41;;;;;;;17.60;15.97;;;25.80;1.00;;;;;;5091760;27;20462;-78
2021/07/25 08:06:09;;;;;;;17.90;16.27;;;25.90;1.00;;;;;;5091158;27;20470;-78
2021/07/25 08:08:35;;;;;;;18.10;16.40;;;26.10;1.00;;;;;;5092366;27;20462;-79
2021/07/25 08:11:02;;;;;;;16.83;15.37;;;26.40;1.00;;;;;;5097183;28;20949;-79
2021/07/25 08:13:29;;;;;;;17.50;15.70;;;26.70;1.00;;;;;;5092198;27;20461;-79
2021/07/25 08:15:55;;;;;;;18.00;16.60;;;26.80;1.00;;;;;;5096036;28;21006;-79
2021/07/25 08:18:22;;;;;;;18.50;17.00;;;26.80;1.00;;;;;;5093247;27;21001;-80
2021/07/25 08:20:48;;;;;;;18.17;16.67;;;26.80;1.00;;;;;;5092188;27;20462;-79
2021/07/25 08:23:16;;;;;;;16.90;15.50;;;26.70;1.00;;;;;;5093107;27;20461;-79
2021/07/25 08:25:43;;;;;;;18.10;16.50;;;26.70;1.00;;;;;;5092915;27;20459;-79
2021/07/25 08:28:10;;;;;;;18.10;16.60;;;26.80;1.00;;;;;;5091971;28;20467;-79
2021/07/25 08:30:36;;;;;;;17.23;15.83;;;26.80;1.00;;;;;;5089491;27;20445;-80
2021/07/25 08:33:04;;;;;;;18.43;16.83;;;27.00;1.00;;;;;;5092235;27;20421;-80
2021/07/25 08:35:30;;;;;;;18.17;16.67;;;27.10;1.00;;;;;;5091676;27;20437;-80
2021/07/25 08:37:57;;;;;;;18.43;16.40;;;27.20;1.00;;;;;;5091182;27;20455;-78
2021/07/25 08:40:26;;;;;;;17.63;16.17;;;27.40;1.00;;;;;;5089741;28;20426;-78
2021/07/25 08:43:06;;;;;;;16.83;15.53;;;27.60;1.00;;;;;;5093446;27;20491;-79
2021/07/25 08:45:33;;;;;;;18.00;16.50;;;27.80;1.00;;;;;;5093094;28;20507;-80
2021/07/25 08:48:09;;;;;;;16.13;14.63;;;27.90;1.00;;;;;;5094929;27;21235;-78
2021/07/25 08:50:41;;;;;;;17.00;15.60;;;28.20;1.00;;;;;;5093732;27;20446;-79
2021/07/25 08:53:14;;;;;;;16.73;15.27;;;28.30;1.00;;;;;;5085960;27;20452;-79
2021/07/25 08:55:42;;;;;;;17.40;15.73;;;28.50;1.00;;;;;;5090963;27;20551;-79
2021/07/25 08:58:12;;;;;;;17.17;15.80;;;28.70;1.00;;;;;;5093708;28;21155;-78
2021/07/25 09:00:39;;;;;;;16.30;15.00;;;28.80;1.00;;;;;;5107581;27;20437;-79
2021/07/25 09:03:08;;;;;;;17.97;16.50;;;28.90;1.00;;;;;;5102972;27;20884;-74
2021/07/25 09:05:36;;;;;;;16.40;14.90;;;29.00;1.00;;;;;;5085558;27;20448;-76
2021/07/25 09:08:03;;;;;;;15.80;14.50;;;29.00;1.00;;;;;;5086176;28;20495;-76
2021/07/25 09:10:31;;;;;;;15.93;14.63;;;29.00;1.00;;;;;;5081724;28;20542;-74
2021/07/25 09:12:59;;;;;;;15.47;14.17;;;29.10;1.00;;;;;;5079236;27;20495;-76
2021/07/25 09:15:29;;;;;;;16.50;15.10;;;29.30;1.00;;;;;;5087974;27;20449;-76
2021/07/25 09:17:57;;;;;;;15.07;13.87;;;29.30;1.00;;;;;;5085001;27;20462;-75
2021/07/25 09:20:27;;;;;;;16.17;14.87;;;29.50;1.00;;;;;;5087714;27;20454;-75
2021/07/25 09:23:00;;;;;;;16.83;14.97;;;29.60;1.00;;;;;;5085685;27;20454;-75
2021/07/25 09:25:29;;;;;;;15.60;14.40;;;29.60;1.00;;;;;;5089776;27;20465;-76
2021/07/25 09:28:16;;;;;;;17.07;15.60;;;29.70;1.00;;;;;;5087865;27;20449;-76
2021/07/25 09:30:43;;;;;;;14.80;13.70;;;29.90;1.00;;;;;;5085113;27;20597;-75
2021/07/25 09:33:24;;;;;;;15.40;14.03;;;30.10;1.00;;;;;;5088686;27;20532;-76
2021/07/25 09:35:51;;;;;;;15.63;14.43;;;30.30;1.00;;;;;;5088564;27;20418;-76
2021/07/25 09:38:19;;;;;;;15.80;14.57;;;30.50;1.00;;;;;;5086783;27;20472;-77
2021/07/25 09:40:47;;;;;;;15.60;14.30;;;30.90;1.00;;;;;;5087288;27;20970;-77
2021/07/25 09:43:18;;;;;;;15.50;14.10;;;31.60;1.00;;;;;;5090672;28;21105;-77
2021/07/25 09:45:58;;;;;;;17.03;15.30;;;32.40;1.00;;;;;;5087218;27;20448;-76
2021/07/25 09:48:27;;;;;;;15.77;14.47;;;33.30;1.00;;;;;;5088632;28;20450;-77
2021/07/25 09:50:56;;;;;;;15.50;14.30;;;34.40;1.00;;;;;;5090591;27;20446;-77
2021/07/25 09:53:23;;;;;;;15.00;13.80;;;34.70;1.00;;;;;;5088720;27;20473;-77
2021/07/25 09:55:52;;;;;;;14.97;13.73;;;35.10;1.00;;;;;;5089875;27;20855;-75
2021/07/25 09:58:34;;;;;;;14.63;13.43;;;35.40;1.00;;;;;;5090091;27;20461;-76
2021/07/25 10:01:00;;;;;;;14.57;13.30;;;35.50;1.00;;;;;;5088869;27;20488;-75
2021/07/25 10:03:32;;;;;;;15.73;14.50;;;35.80;1.00;;;;;;5091930;27;20948;-76
2021/07/25 10:05:59;;;;;;;15.40;14.20;;;36.30;1.00;;;;;;5086177;28;20465;-75
2021/07/25 10:08:26;;;;;;;15.90;14.60;;;36.90;1.00;;;;;;5105265;27;21480;-76
2021/07/25 10:10:55;;;;;;;14.37;13.17;;;37.40;1.00;;;;;;5092049;28;20461;-75
2021/07/25 10:13:23;;;;;;;14.50;13.40;;;37.50;1.00;;;;;;5090897;27;20561;-76
2021/07/25 10:15:55;;;;;;;14.30;13.20;;;37.20;1.00;;;;;;5087291;27;20477;-76
2021/07/25 10:18:22;;;;;;;15.30;14.03;;;37.40;1.00;;;;;;5086770;27;20458;-76
2021/07/25 10:20:51;;;;;;;14.93;13.83;;;37.40;1.00;;;;;;5088326;27;20836;-76
2021/07/25 10:23:22;;;;;;;16.50;14.90;;;37.60;1.00;;;;;;5090511;28;20438;-76
2021/07/25 10:25:51;;;;;;;15.03;13.93;;;38.20;1.00;;;;;;5087861;27;20437;-76
2021/07/25 10:28:20;;;;;;;15.17;14.03;;;38.90;1.00;;;;;;5092747;28;20458;-76
2021/07/25 10:30:49;;;;;;;15.63;14.33;;;38.80;1.00;;;;;;5089859;27;20461;-76
2021/07/25 10:33:18;;;;;;;17.63;16.00;;;38.20;1.00;;;;;;5094116;27;20916;-76
2021/07/25 10:35:46;;;;;;;16.20;14.83;;;37.60;1.00;;;;;;5099403;27;20824;-77
2021/07/25 10:38:12;;;;;;;14.90;13.70;;;37.40;1.00;;;;;;5089612;27;20453;-76
2021/07/25 10:40:40;;;;;;;15.37;14.07;;;37.30;1.00;;;;;;5091425;28;20551;-76
2021/07/25 10:43:07;;;;;;;15.40;14.30;;;37.80;1.00;;;;;;5090163;27;20445;-77
2021/07/25 10:45:35;;;;;;;15.50;14.17;;;38.30;1.00;;;;;;5088294;28;21048;-77
2021/07/25 10:48:16;;;;;;;16.20;14.80;;;38.10;1.00;;;;;;5088916;27;20531;-76
2021/07/25 10:50:43;;;;;;;15.43;14.30;;;37.40;1.00;;;;;;5092339;27;20901;-76
2021/07/25 10:53:22;;;;;;;16.10;14.50;;;37.40;1.00;;;;;;5091747;27;21064;-76
2021/07/25 10:55:52;;;;;;;15.97;14.67;;;37.80;1.00;;;;;;5088953;27;20446;-77
2021/07/25 10:58:21;;;;;;;15.27;14.07;;;38.10;1.00;;;;;;5086134;27;20944;-76
2021/07/25 11:00:53;;;;;;;15.80;14.30;;;38.40;1.00;;;;;;5086397;27;20880;-76
2021/07/25 11:03:43;;;;;;;14.20;13.10;;;38.50;1.00;;;;;;5090551;28;20461;-77
2021/07/25 11:06:20;;;;;;;15.90;14.53;;;39.10;1.00;;;;;;5090905;27;20642;-77
2021/07/25 11:08:50;;;;;;;16.07;14.67;;;39.40;1.00;;;;;;5093443;28;21045;-76
2021/07/25 11:11:56;;;;;;;16.17;14.77;;;39.20;1.00;;;;;;5090831;27;20473;-77
2021/07/25 11:15:05;;;;;;;15.93;14.63;;;38.80;1.00;;;;;;5089620;27;21314;-77
2021/07/25 11:17:48;;;;;;;14.50;13.50;;;38.40;1.00;;;;;;5067357;27;20463;-76
2021/07/25 11:20:32;;;;;;;14.77;13.57;;;38.30;1.00;;;;;;5092736;28;20449;-77
2021/07/25 11:22:59;;;;;;;15.67;14.43;;;38.10;1.00;;;;;;5092946;27;20459;-76
2021/07/25 11:25:31;;;;;;;15.30;13.97;;;37.70;1.00;;;;;;5090474;27;20562;-76
2021/07/25 11:27:57;;;;;;;15.70;14.50;;;37.00;1.00;;;;;;5087259;27;20453;-77
2021/07/25 11:31:07;;;;;;;16.27;14.93;;;36.50;1.00;;;;;;5090719;27;20512;-76
2021/07/25 11:33:52;;;;;;;15.07;13.80;;;36.10;1.00;;;;;;5088653;27;20817;-76
2021/07/25 11:36:23;;;;;;;15.30;13.93;;;35.90;1.00;;;;;;5088296;27;20441;-77
2021/07/25 11:38:53;;;;;;;15.90;14.50;;;36.00;1.00;;;;;;5089128;27;21237;-76
2021/07/25 11:41:22;;;;;;;14.80;13.70;;;36.90;1.00;;;;;;5098796;27;20946;-76
2021/07/25 11:43:55;;;;;;;14.67;13.37;;;37.60;1.00;;;;;;5096413;28;20459;-76
2021/07/25 11:46:26;;;;;;;15.60;14.40;;;37.60;1.00;;;;;;5090159;27;20461;-76
2021/07/25 11:49:16;;;;;;;17.37;15.50;;;37.10;1.00;;;;;;5087483;27;20845;-76
2021/07/25 11:51:49;;;;;;;15.80;14.43;;;36.40;1.00;;;;;;5090002;27;20487;-75
2021/07/25 11:54:19;;;;;;;15.13;13.83;;;36.00;1.00;;;;;;5088777;27;20422;-76
2021/07/25 11:56:54;;;;;;;15.27;14.00;;;36.00;1.00;;;;;;5087957;27;20470;-77
2021/07/25 11:59:22;;;;;;;15.70;14.40;;;37.00;1.00;;;;;;5087708;27;21402;-77
2021/07/25 12:01:49;;;;;;;15.50;14.17;;;37.60;1.00;;;;;;5089812;28;20591;-77
2021/07/25 12:04:21;;;;;;;15.23;14.03;;;37.60;1.00;;;;;;5087072;27;20966;-77
2021/07/25 12:07:00;;;;;;;15.47;14.13;;;37.70;1.00;;;;;;5092471;27;20449;-77
2021/07/25 12:09:27;;;;;;;15.90;14.70;;;38.30;1.00;;;;;;5089434;27;20446;-76
2021/07/25 12:12:05;;;;;;;14.53;13.43;;;38.30;1.00;;;;;;5091535;27;20458;-77
2021/07/25 12:14:34;;;;;;;17.00;15.60;;;37.70;1.00;;;;;;5086857;27;20434;-77
2021/07/25 12:17:01;;;;;;;14.97;13.57;;;37.20;1.00;;;;;;5091086;27;20461;-77
2021/07/25 12:19:33;;;;;;;14.20;12.93;;;37.60;1.00;;;;;;5089662;28;20448;-77
2021/07/25 12:22:17;;;;;;;14.70;13.40;;;39.00;1.00;;;;;;5088273;27;21023;-78
2021/07/25 12:24:47;;;;;;;15.10;13.67;;;40.30;1.00;;;;;;5089126;28;20461;-77
2021/07/25 12:27:34;;;;;;;15.23;14.03;;;41.20;1.00;;;;;;5089347;27;20485;-77
2021/07/25 12:30:08;;;;;;;13.90;12.80;;;40.80;1.00;;;;;;5090954;28;20469;-77
2021/07/25 12:32:35;;;;;;;15.50;14.30;;;41.30;1.00;;;;;;5089535;27;20426;-77
2021/07/25 12:35:22;;;;;;;14.37;13.37;;;40.50;1.00;;;;;;5089208;27;21312;-76
2021/07/25 12:37:52;;;;;;;14.87;13.57;;;39.20;1.00;;;;;;5089981;27;20665;-76
2021/07/25 12:40:21;;;;;;;16.27;14.97;;;37.90;1.00;;;;;;5085134;27;20473;-76
2021/07/25 12:42:50;;;;;;;15.23;14.00;;;36.80;1.00;;;;;;5088641;27;20946;-77
2021/07/25 12:45:25;;;;;;;15.03;13.80;;;37.10;1.00;;;;;;5087600;27;20433;-77
2021/07/25 12:48:34;;;;;;;13.53;12.43;;;38.40;1.00;;;;;;5089524;27;21168;-77